Aviation Digital Data Service (ADDS)

Output produced by METARs form (2110 UTC 14 June 2021)
found at http://www.aviationweather.gov/metar/data/
 
METAR text: CYYF 142100Z 31007KT 15SM -SHRA FEW020 BKN085 17/14 A2997 RMK SF1AC6 CVCTV CLD EMBD SLP150 DENSITY ALT 1600FT
Conditions at: CYYF (PENTICTON AIRPOR, BC, CA) observed 2100 UTC 14 June 2021
Temperature: 17.0°C (63°F)
Dewpoint: 14.0°C (57°F) [RH = 82%]
Pressure (altimeter): 29.97 inches Hg (1015.0 mb)
[Sea-level pressure: 1015.0 mb]
Winds: from the NW (310 degrees) at 8 MPH (7 knots; 3.6 m/s)
Visibility: 15 miles (24 km)
Ceiling: 8500 feet AGL
Clouds: few clouds at 2000 feet AGL
broken clouds at 8500 feet AGL
Weather: -SHRA  (light rain showers)

METAR text: CYYF 142000Z 33007KT 15SM -SHRA FEW010 SCT060 OVC095 17/14 A2996 RMK SF1CU2AC5 SLP148 DENSITY ALT 1600FT
Conditions at: CYYF (PENTICTON AIRPOR, BC, CA) observed 2000 UTC 14 June 2021
Temperature: 17.0°C (63°F)
Dewpoint: 14.0°C (57°F) [RH = 82%]
Pressure (altimeter): 29.96 inches Hg (1014.6 mb)
[Sea-level pressure: 1014.8 mb]
Winds: from the NNW (330 degrees) at 8 MPH (7 knots; 3.6 m/s)
Visibility: 15 miles (24 km)
Ceiling: 9500 feet AGL
Clouds: few clouds at 1000 feet AGL
scattered clouds at 6000 feet AGL
overcast cloud deck at 9500 feet AGL
Weather: -SHRA  (light rain showers)

METAR text: CYYF 141900Z 04006KT 15SM FEW010 BKN090 17/14 A2997 RMK SF1AC7 SF TR SLP149 DENSITY ALT 1700FT
Conditions at: CYYF (PENTICTON AIRPOR, BC, CA) observed 1900 UTC 14 June 2021
Temperature: 17.0°C (63°F)
Dewpoint: 14.0°C (57°F) [RH = 82%]
Pressure (altimeter): 29.97 inches Hg (1015.0 mb)
[Sea-level pressure: 1014.9 mb]
Winds: from the NE (40 degrees) at 7 MPH (6 knots; 3.1 m/s)
Visibility: 15 miles (24 km)
Ceiling: 9000 feet AGL
Clouds: few clouds at 1000 feet AGL
broken clouds at 9000 feet AGL
Weather: no significant weather observed at this time

Forecast for: CYYF (PENTICTON AIRPOR, BC, CA)
Text: TAF CYYF 141838Z 1419/1507 32007KT P6SM FEW010 BKN090
Forecast period: 1900 to 2000 UTC 14 June 2021
Forecast type: FROM: standard forecast or significant change
Winds: from the NW (320 degrees) at 8 MPH (7 knots; 3.6 m/s)
Visibility: 6 or more miles (10+ km)
Ceiling: 9000 feet AGL
Clouds: few clouds at 1000 feet AGL
broken clouds at 9000 feet AGL
Weather: no significant weather forecast for this period
Text: FM142000 36012KT P6SM SCT060 BKN120
Forecast period: 2000 UTC 14 June 2021 to 0700 UTC 15 June 2021
Forecast type: FROM: standard forecast or significant change
Winds: from the N (360 degrees) at 14 MPH (12 knots; 6.2 m/s)
Visibility: 6 or more miles (10+ km)
Ceiling: 12000 feet AGL
Clouds: scattered clouds at 6000 feet AGL
broken clouds at 12000 feet AGL
Weather: no significant weather forecast for this period
Text: TEMPO 1420/1507 P6SM -SHRA BKN050
Forecast period: 2000 UTC 14 June 2021 to 0700 UTC 15 June 2021
Forecast type: TEMPORARY: The following changes expected for less than half the time period
Visibility: 6 or more miles (10+ km)
Ceiling: 5000 feet AGL
Clouds: broken clouds at 5000 feet AGL
Weather: -SHRA  (light rain showers)
Text: PROB30 1420/1502 VRB20G30KT 5SM TSRA BR BKN050CB RMK NXT FCST BY 150100Z
Forecast period: 2000 UTC 14 June 2021 to 0200 UTC 15 June 2021
Forecast type: PROBABLE: 30 percent likelihood of the following during this time
Winds: variable direction winds at 23 MPH (20 knots; 10.3 m/s)
gusting to 34 MPH (30 knots; 15.4 m/s)
Visibility: 5 miles (8 km)
Ceiling: 5000 feet AGL
Clouds: broken clouds at 5000 feet AGL
Weather: TSRA BR  (rain associated with thunderstorm(s), mist)